Portada
METAR-TAF:

METAR-TAF

Aeropuertos :

Aeropuerto Capitán Av. Selin Zeitun Lopez

Riberalta, Bolivia

latitud: 11-00S, longitud: 066-07W, altitud: 141 m

Observación

El informe se hizo hace 1 hora y 0 minutos, a las 16:00 UTC
Viento calma
Temperatura 21°C
Humedad 100%
Presión 1020 hPa
Visibilidad: 2000 m
Cielo nuboso a una altura de 500 ft
Escasas nubes a una altura de 2000 ft, Cumulonimbus.
Cielo cubierto a una altura de 7000 ft
lluvia

METAR: SLRI 151600Z 00000KT 2000 RA BKN005 FEW020CB OVC070 21/21 Q1020

Hora: 13:00 (17:00 UTC)


TAF: falta

Observaciones y pronósticos meteorológicos de más de 4000 aeropuertos (mensajes METAR y TAF).

Los puntos amarillos y rojos representan las estaciones disponibles.

Ponga el ratón en el punto deseado para ver el nombre de la estación.

Haga clic para ver las observaciones y los pronósticos meteorológicos.

Para cambiar el mapa : haga clic en los botones verdes con una cruz de color negro para hacer un zoom, en el botón verde con un guión para alejar o en las flechas verdes para mapas adyacentes.


METAR-TAF: